createdAt,value
2018-07-01T00:00:19.096Z,51.64
2018-07-01T00:01:19.032Z,54.26
2018-07-01T00:02:19.027Z,51.75
2018-07-01T00:03:19.013Z,53.04
2018-07-01T00:04:19.004Z,54.59
2018-07-01T00:05:18.994Z,52.35
2018-07-01T00:06:18.999Z,53.57
2018-07-01T00:07:18.967Z,53.06
2018-07-01T00:08:18.954Z,51.64
2018-07-01T00:09:18.950Z,54.18
2018-07-01T00:10:18.948Z,55.51
2018-07-01T00:11:18.951Z,53.70
2018-07-01T00:12:18.911Z,52.37
2018-07-01T00:13:18.900Z,55.73
2018-07-01T00:14:18.891Z,55.43
2018-07-01T00:15:18.883Z,55.05
2018-07-01T00:16:18.875Z,55.12
2018-07-01T00:17:18.872Z,55.86
2018-07-01T00:18:18.851Z,56.16
2018-07-01T00:19:18.844Z,53.32
2018-07-01T00:20:18.826Z,55.25
2018-07-01T00:21:18.814Z,56.57
2018-07-01T00:22:18.810Z,54.64
2018-07-01T00:23:18.797Z,54.03
2018-07-01T00:24:18.792Z,54.24
2018-07-01T00:25:18.773Z,56.57
2018-07-01T00:26:18.763Z,53.02
2018-07-01T00:27:18.760Z,53.93
2018-07-01T00:28:18.746Z,56.27
2018-07-01T00:29:18.735Z,52.40
2018-07-01T00:30:18.722Z,55.66
2018-07-01T00:31:18.710Z,53.19
2018-07-01T00:32:18.699Z,54.00
2018-07-01T00:33:18.685Z,54.31
2018-07-01T00:34:18.678Z,54.61
2018-07-01T00:35:18.668Z,56.47
2018-07-01T00:36:18.682Z,54.41
2018-07-01T00:37:18.652Z,52.68
2018-07-01T00:38:18.644Z,52.78
2018-07-01T00:39:18.626Z,53.17
2018-07-01T00:40:18.611Z,54.49
2018-07-01T00:41:18.609Z,52.66
2018-07-01T00:42:18.618Z,52.05
2018-07-01T00:43:18.588Z,52.66
2018-07-01T00:44:18.570Z,51.75
2018-07-01T00:45:18.559Z,54.18
2018-07-01T00:46:18.547Z,52.66
2018-07-01T00:47:18.540Z,50.93
2018-07-01T00:48:18.533Z,52.05
2018-07-01T00:49:18.512Z,52.76
2018-07-01T00:50:18.504Z,50.01
2018-07-01T00:51:18.498Z,50.60
2018-07-01T00:52:18.488Z,50.29
2018-07-01T00:53:18.495Z,50.20
2018-07-01T00:54:18.463Z,49.46
2018-07-01T00:55:18.451Z,50.48
2018-07-01T00:56:18.470Z,48.75
2018-07-01T00:57:18.434Z,51.70
2018-07-01T00:58:18.422Z,51.70
2018-07-01T00:59:18.408Z,49.56
2018-07-01T01:00:18.394Z,49.16
2018-07-01T01:01:18.385Z,50.37
2018-07-01T01:02:18.375Z,52.71
2018-07-01T01:03:18.386Z,51.39
2018-07-01T01:04:18.358Z,52.73
2018-07-01T01:05:18.349Z,50.60
2018-07-01T01:06:18.334Z,49.05
2018-07-01T01:07:18.325Z,50.50
2018-07-01T01:08:18.312Z,50.58
2018-07-01T01:09:18.296Z,49.46
2018-07-01T01:10:18.305Z,48.75
2018-07-01T01:11:18.280Z,49.03
2018-07-01T01:12:18.271Z,50.78
2018-07-01T01:13:18.281Z,48.75
2018-07-01T01:14:18.245Z,50.65
2018-07-01T01:15:18.236Z,49.46
2018-07-01T01:16:18.236Z,49.44
2018-07-01T01:17:18.224Z,52.08
2018-07-01T01:18:18.204Z,51.49
2018-07-01T01:19:18.193Z,52.10
2018-07-01T01:20:18.178Z,50.88
2018-07-01T01:21:18.166Z,50.88
2018-07-01T01:22:18.160Z,53.55
2018-07-01T01:23:18.151Z,50.81
2018-07-01T01:24:18.160Z,51.62
2018-07-01T01:25:18.131Z,52.63
2018-07-01T01:26:18.118Z,51.42
2018-07-01T01:27:18.105Z,53.24
2018-07-01T01:28:18.091Z,51.54
2018-07-01T01:29:18.115Z,53.65
2018-07-01T01:30:18.073Z,53.06
2018-07-01T01:31:18.077Z,52.76
2018-07-01T01:32:18.056Z,55.10
2018-07-01T01:33:18.045Z,51.23
2018-07-01T01:34:18.035Z,50.42
2018-07-01T01:35:18.025Z,51.64
2018-07-01T01:36:18.010Z,53.17
2018-07-01T01:37:17.994Z,52.43
2018-07-01T01:38:17.987Z,51.84
2018-07-01T01:39:17.982Z,54.79
2018-07-01T01:40:17.969Z,52.96
2018-07-01T01:41:17.960Z,54.49
2018-07-01T01:42:17.948Z,54.28
2018-07-01T01:43:17.937Z,53.90
2018-07-01T01:44:17.919Z,53.19
2018-07-01T01:45:17.917Z,54.61
2018-07-01T01:46:17.904Z,53.37
2018-07-01T01:47:17.889Z,54.51
2018-07-01T01:48:17.878Z,51.03
2018-07-01T01:49:17.864Z,51.23
2018-07-01T01:50:17.857Z,52.96
2018-07-01T01:51:17.852Z,50.81
2018-07-01T01:52:17.841Z,51.72
2018-07-01T01:53:17.831Z,50.81
2018-07-01T01:54:17.830Z,50.88
2018-07-01T01:55:17.803Z,51.79
2018-07-01T01:56:17.792Z,50.40
2018-07-01T01:57:17.779Z,50.37
2018-07-01T01:58:17.771Z,50.17
2018-07-01T01:59:17.765Z,49.97
2018-07-01T02:00:17.754Z,52.40
2018-07-01T02:01:17.755Z,52.81
2018-07-01T02:02:17.728Z,50.88
2018-07-01T02:03:17.718Z,51.70
2018-07-01T02:04:17.710Z,51.01
2018-07-01T02:05:17.700Z,50.40
2018-07-01T02:06:17.735Z,51.42
2018-07-01T02:07:17.680Z,49.97
2018-07-01T02:08:17.660Z,51.16
2018-07-01T02:09:17.648Z,49.87
2018-07-01T02:10:17.640Z,48.85
2018-07-01T02:11:17.631Z,51.77
2018-07-01T02:12:17.626Z,51.09
2018-07-01T02:13:17.613Z,49.64
2018-07-01T02:14:17.607Z,48.63
2018-07-01T02:15:17.587Z,49.82
2018-07-01T02:16:17.573Z,49.01
2018-07-01T02:17:17.572Z,49.69
2018-07-01T02:18:17.564Z,49.11
2018-07-01T02:19:17.546Z,50.33
2018-07-01T02:20:17.531Z,49.41
2018-07-01T02:21:17.530Z,50.86
2018-07-01T02:22:17.517Z,49.64
2018-07-01T02:23:17.503Z,50.45
2018-07-01T02:24:17.496Z,50.56
2018-07-01T02:25:17.492Z,50.15
2018-07-01T02:26:17.470Z,48.93
2018-07-01T02:27:17.483Z,50.45
2018-07-01T02:28:17.446Z,48.71
2018-07-01T02:29:17.432Z,48.71
2018-07-01T02:30:17.424Z,48.71
2018-07-01T02:31:17.415Z,49.82
2018-07-01T02:32:17.413Z,50.73
2018-07-01T02:33:17.392Z,50.04
2018-07-01T02:34:17.406Z,50.76
2018-07-01T02:35:17.423Z,49.16
2018-07-01T02:36:17.363Z,52.61
2018-07-01T02:37:17.353Z,52.81
2018-07-01T02:38:17.351Z,50.17
2018-07-01T02:39:17.325Z,52.20
2018-07-01T02:40:17.312Z,50.60
2018-07-01T02:41:17.308Z,53.55
2018-07-01T02:42:17.293Z,53.14
2018-07-01T02:43:17.335Z,51.21
2018-07-01T02:44:17.277Z,53.65
2018-07-01T02:45:17.266Z,51.11
2018-07-01T02:46:17.253Z,52.03
2018-07-01T02:47:17.239Z,50.60
2018-07-01T02:48:17.252Z,53.24
2018-07-01T02:49:17.227Z,51.01
2018-07-01T02:50:17.225Z,53.96
2018-07-01T02:51:17.196Z,53.67
2018-07-01T02:52:17.183Z,54.18
2018-07-01T02:53:17.201Z,52.76
2018-07-01T02:54:17.166Z,54.08
2018-07-01T02:55:17.154Z,54.49
2018-07-01T02:56:17.148Z,52.05
2018-07-01T02:57:17.136Z,53.17
2018-07-01T02:58:17.126Z,54.39
2018-07-01T02:59:17.115Z,54.28
2018-07-01T03:00:17.100Z,54.51
2018-07-01T03:01:17.085Z,54.69
2018-07-01T03:02:17.078Z,56.14
2018-07-01T03:03:17.068Z,54.41
2018-07-01T03:04:17.061Z,54.28
2018-07-01T03:05:17.042Z,53.47
2018-07-01T03:06:17.035Z,52.35
2018-07-01T03:07:17.026Z,55.00
2018-07-01T03:08:17.018Z,55.51
2018-07-01T03:09:17.008Z,54.72
2018-07-01T03:10:16.993Z,55.12
2018-07-01T03:11:16.979Z,54.11
2018-07-01T03:12:16.973Z,54.31
2018-07-01T03:13:16.964Z,54.21
2018-07-01T03:14:16.991Z,54.51
2018-07-01T03:15:16.954Z,55.02
2018-07-01T03:16:16.930Z,56.45
2018-07-01T03:17:16.950Z,56.47
2018-07-01T03:18:16.906Z,55.25
2018-07-01T03:19:16.968Z,55.55
2018-07-01T03:20:16.881Z,57.59
2018-07-01T03:21:16.875Z,56.81
2018-07-01T03:22:16.869Z,55.89
2018-07-01T03:23:16.860Z,56.29
2018-07-01T03:24:16.839Z,56.50
2018-07-01T03:25:16.850Z,56.52
2018-07-01T03:26:16.838Z,57.95
2018-07-01T03:27:16.810Z,58.46
2018-07-01T03:28:16.805Z,57.75
2018-07-01T03:29:16.796Z,58.76
2018-07-01T03:30:16.810Z,59.58
2018-07-01T03:31:16.768Z,59.78
2018-07-01T03:32:16.755Z,60.42
2018-07-01T03:33:16.740Z,59.91
2018-07-01T03:34:16.741Z,60.76
2018-07-01T03:35:16.750Z,61.16
2018-07-01T03:36:16.720Z,64.15
2018-07-01T03:37:16.697Z,62.62
2018-07-01T03:38:16.692Z,61.40
2018-07-01T03:39:16.687Z,63.78
2018-07-01T03:40:16.673Z,62.55
2018-07-01T03:41:16.666Z,64.42
2018-07-01T03:42:16.649Z,63.49
2018-07-01T03:43:16.635Z,64.01
2018-07-01T03:44:16.625Z,66.86
2018-07-01T03:45:16.613Z,65.98
2018-07-01T03:46:16.631Z,65.67
2018-07-01T03:47:16.632Z,66.08
2018-07-01T03:48:16.587Z,65.50
2018-07-01T03:49:16.583Z,65.80
2018-07-01T03:50:16.607Z,67.13
2018-07-01T03:51:16.554Z,69.07
2018-07-01T03:52:16.540Z,68.26
2018-07-01T03:53:16.533Z,69.11
2018-07-01T03:54:16.520Z,68.08
2018-07-01T03:55:16.506Z,66.96
2018-07-01T03:56:16.494Z,69.55
2018-07-01T03:57:16.483Z,68.19
2018-07-01T03:58:16.475Z,68.32
2018-07-01T03:59:16.465Z,69.55
2018-07-01T04:00:16.484Z,69.17
2018-07-01T04:01:16.448Z,69.24
2018-07-01T04:02:16.442Z,70.37
2018-07-01T04:03:16.423Z,70.71
2018-07-01T04:04:16.408Z,70.09
2018-07-01T04:05:16.400Z,71.59
2018-07-01T04:06:16.386Z,70.71
2018-07-01T04:07:16.383Z,70.09
2018-07-01T04:08:16.369Z,70.29
2018-07-01T04:09:16.351Z,71.83
2018-07-01T04:10:16.344Z,71.94
2018-07-01T04:11:16.362Z,69.79
2018-07-01T04:12:16.360Z,70.91
2018-07-01T04:13:16.314Z,72.75
2018-07-01T04:14:16.301Z,72.34
2018-07-01T04:15:16.288Z,73.03
2018-07-01T04:16:16.275Z,72.04
2018-07-01T04:17:16.264Z,69.96
2018-07-01T04:18:16.258Z,69.96
2018-07-01T04:19:16.248Z,71.39
2018-07-01T04:20:16.239Z,70.26
2018-07-01T04:21:16.228Z,70.37
2018-07-01T04:22:16.225Z,69.45
2018-07-01T04:23:16.208Z,70.47
2018-07-01T04:24:16.192Z,70.88
2018-07-01T04:25:16.194Z,71.39
2018-07-01T04:26:16.171Z,69.85
2018-07-01T04:27:16.158Z,70.16
2018-07-01T04:28:16.149Z,70.98
2018-07-01T04:29:16.134Z,72.31
2018-07-01T04:30:16.126Z,71.19
2018-07-01T04:31:16.153Z,70.95
2018-07-01T04:32:16.113Z,70.34
2018-07-01T04:33:16.126Z,71.46
2018-07-01T04:34:16.096Z,70.43
2018-07-01T04:35:16.074Z,70.34
2018-07-01T04:36:16.059Z,71.63
2018-07-01T04:37:16.050Z,71.25
2018-07-01T04:38:16.041Z,70.64
2018-07-01T04:39:16.081Z,68.87
2018-07-01T04:40:16.063Z,69.07
2018-07-01T04:41:16.071Z,69.89
2018-07-01T04:42:16.183Z,71.42
2018-07-01T04:43:16.090Z,70.61
2018-07-01T04:44:17.241Z,71.12
2018-07-01T04:45:15.970Z,69.35
2018-07-01T04:46:15.957Z,68.84
2018-07-01T04:47:15.942Z,70.57
2018-07-01T04:48:15.930Z,67.71
2018-07-01T04:49:16.004Z,69.93
2018-07-01T04:50:15.911Z,69.21
2018-07-01T04:51:15.903Z,69.15
2018-07-01T04:52:15.893Z,71.67
2018-07-01T04:53:15.882Z,70.44
2018-07-01T04:54:15.902Z,70.34
2018-07-01T04:55:16.008Z,70.44
2018-07-01T04:56:15.842Z,69.52
2018-07-01T04:57:15.850Z,70.64
2018-07-01T04:58:15.829Z,69.11
2018-07-01T04:59:15.830Z,68.40
2018-07-01T05:00:15.842Z,68.98
2018-07-01T05:01:15.805Z,68.37
2018-07-01T05:02:15.907Z,67.82
2018-07-01T05:03:15.772Z,66.19
2018-07-01T05:04:15.762Z,65.34
2018-07-01T05:05:15.755Z,65.55
2018-07-01T05:06:15.741Z,62.87
2018-07-01T05:07:15.726Z,61.21
2018-07-01T05:08:15.713Z,63.15
2018-07-01T05:09:15.704Z,62.10
2018-07-01T05:10:15.719Z,60.75
2018-07-01T05:11:15.693Z,62.07
2018-07-01T05:12:15.680Z,59.80
2018-07-01T05:13:15.673Z,62.75
2018-07-01T05:14:15.647Z,61.83
2018-07-01T05:15:15.645Z,60.00
2018-07-01T05:16:15.637Z,59.80
2018-07-01T05:17:15.659Z,60.28
2018-07-01T05:18:15.646Z,57.64
2018-07-01T05:19:15.594Z,60.66
2018-07-01T05:20:15.586Z,60.15
2018-07-01T05:21:15.575Z,56.87
2018-07-01T05:22:15.565Z,58.60
2018-07-01T05:23:15.558Z,56.74
2018-07-01T05:24:15.544Z,58.17
2018-07-01T05:25:15.533Z,56.54
2018-07-01T05:26:15.526Z,57.53
2018-07-01T05:27:15.510Z,59.05
2018-07-01T05:28:15.502Z,57.73
2018-07-01T05:29:15.489Z,56.52
2018-07-01T05:30:15.481Z,58.75
2018-07-01T05:31:15.470Z,57.53
2018-07-01T05:32:15.459Z,54.90
2018-07-01T05:33:15.444Z,58.45
2018-07-01T05:34:15.430Z,57.60
2018-07-01T05:35:15.428Z,57.60
2018-07-01T05:36:15.416Z,57.81
2018-07-01T05:37:15.403Z,55.68
2018-07-01T05:38:15.396Z,56.59
2018-07-01T05:39:15.379Z,56.29
2018-07-01T05:40:15.368Z,56.36
2018-07-01T05:41:15.362Z,56.05
2018-07-01T05:42:15.344Z,54.92
2018-07-01T05:43:15.342Z,55.43
2018-07-01T05:44:15.330Z,55.52
2018-07-01T05:45:15.336Z,53.88
2018-07-01T05:46:15.353Z,53.34
2018-07-01T05:47:15.363Z,53.45
2018-07-01T05:48:15.304Z,57.67
2018-07-01T05:49:15.275Z,55.35
2018-07-01T05:50:15.392Z,55.15
2018-07-01T05:51:15.251Z,54.13
2018-07-01T05:52:15.246Z,53.30
2018-07-01T05:53:15.228Z,54.21
2018-07-01T05:54:15.214Z,56.13
2018-07-01T05:55:15.210Z,55.73
2018-07-01T05:56:15.197Z,49.96
2018-07-01T05:57:15.323Z,50.46
2018-07-01T05:58:15.188Z,53.38
2018-07-01T05:59:15.162Z,50.44
2018-07-01T06:00:15.155Z,50.64
2018-07-01T06:01:15.154Z,52.87
2018-07-01T06:02:15.147Z,52.44
2018-07-01T06:03:15.119Z,49.51
2018-07-01T06:04:15.120Z,51.32
2018-07-01T06:05:15.099Z,51.93
2018-07-01T06:06:15.088Z,50.82
2018-07-01T06:07:15.129Z,50.29
2018-07-01T06:08:15.077Z,48.58
2018-07-01T06:09:15.059Z,50.80
2018-07-01T06:10:15.051Z,48.68
2018-07-01T06:11:15.068Z,47.95
2018-07-01T06:12:15.027Z,50.67
2018-07-01T06:13:15.017Z,48.27
2018-07-01T06:14:15.001Z,50.47
2018-07-01T06:15:15.036Z,49.26
2018-07-01T06:16:15.013Z,48.45
2018-07-01T06:17:14.969Z,48.75
2018-07-01T06:18:14.959Z,48.45
2018-07-01T06:19:14.959Z,49.76
2018-07-01T06:20:14.941Z,48.96
2018-07-01T06:21:14.933Z,50.55
2018-07-01T06:22:14.919Z,48.53
2018-07-01T06:23:14.943Z,48.73
2018-07-01T06:24:14.910Z,48.63
2018-07-01T06:25:16.115Z,51.35
2018-07-01T06:26:15.329Z,49.54
2018-07-01T06:27:14.993Z,49.64
2018-07-01T06:28:14.918Z,48.22
2018-07-01T06:29:14.844Z,48.61
2018-07-01T06:30:14.844Z,51.93
2018-07-01T06:31:14.811Z,49.31
2018-07-01T06:32:14.806Z,48.41
2018-07-01T06:33:14.797Z,52.04
2018-07-01T06:34:14.786Z,52.24
2018-07-01T06:35:14.768Z,49.82
2018-07-01T06:36:14.759Z,49.41
2018-07-01T06:37:14.752Z,48.71
2018-07-01T06:38:14.808Z,46.99
2018-07-01T06:39:14.754Z,49.11
2018-07-01T06:40:14.719Z,49.41
2018-07-01T06:41:14.716Z,44.25
2018-07-01T06:42:14.701Z,47.78
2018-07-01T06:43:14.680Z,48.66
2018-07-01T06:44:14.675Z,45.03
2018-07-01T06:45:14.659Z,48.36
2018-07-01T06:46:14.648Z,46.85
2018-07-01T06:47:14.645Z,45.74
2018-07-01T06:48:14.632Z,46.34
2018-07-01T06:49:14.658Z,47.05
2018-07-01T06:50:14.607Z,44.93
2018-07-01T06:51:14.613Z,42.72
2018-07-01T06:52:14.614Z,42.90
2018-07-01T06:53:14.580Z,43.10
2018-07-01T06:54:14.571Z,45.21
2018-07-01T06:55:14.557Z,41.67
2018-07-01T06:56:14.554Z,40.86
2018-07-01T06:57:14.531Z,40.77
2018-07-01T06:58:14.517Z,41.05
2018-07-01T06:59:14.513Z,41.65
2018-07-01T07:00:14.535Z,40.44
2018-07-01T07:01:14.489Z,43.16
2018-07-01T07:02:14.482Z,44.77
2018-07-01T07:03:14.469Z,44.17
2018-07-01T07:04:14.461Z,44.47
2018-07-01T07:05:14.452Z,40.53
2018-07-01T07:06:14.451Z,43.64
2018-07-01T07:07:14.420Z,44.24
2018-07-01T07:08:14.434Z,39.12
2018-07-01T07:09:14.517Z,39.32
2018-07-01T07:10:14.394Z,42.41
2018-07-01T07:11:14.387Z,39.42
2018-07-01T07:12:14.370Z,38.42
2018-07-01T07:13:14.363Z,36.79
2018-07-01T07:14:14.350Z,39.00
2018-07-01T07:15:14.337Z,38.09
2018-07-01T07:16:14.376Z,38.48
2018-07-01T07:17:14.326Z,37.27
2018-07-01T07:18:14.328Z,36.47
2018-07-01T07:19:14.319Z,38.58
2018-07-01T07:20:14.357Z,36.97
2018-07-01T07:21:14.271Z,37.47
2018-07-01T07:22:14.268Z,35.46
2018-07-01T07:23:14.270Z,37.17
2018-07-01T07:24:14.287Z,37.07
2018-07-01T07:25:14.231Z,36.75
2018-07-01T07:26:14.234Z,36.07
2018-07-01T07:27:14.216Z,37.26
2018-07-01T07:28:14.198Z,37.76
2018-07-01T07:29:14.187Z,37.84
2018-07-01T07:30:14.172Z,38.04
2018-07-01T07:31:14.172Z,36.73
2018-07-01T07:32:14.157Z,35.31
2018-07-01T07:33:14.147Z,38.22
2018-07-01T07:34:14.150Z,36.41
2018-07-01T07:35:14.125Z,36.41
2018-07-01T07:36:14.141Z,36.02
2018-07-01T07:37:14.101Z,36.92
2018-07-01T07:38:14.098Z,36.50
2018-07-01T07:39:14.076Z,35.10
2018-07-01T07:40:14.067Z,40.41
2018-07-01T07:41:14.063Z,39.21
2018-07-01T07:42:14.055Z,37.50
2018-07-01T07:43:14.036Z,36.90
2018-07-01T07:44:14.027Z,36.00
2018-07-01T07:45:14.065Z,35.98
2018-07-01T07:46:14.006Z,37.68
2018-07-01T07:47:13.995Z,35.78
2018-07-01T07:48:13.980Z,34.67
2018-07-01T07:49:13.970Z,36.98
2018-07-01T07:50:13.958Z,36.98
2018-07-01T07:51:13.953Z,36.08
2018-07-01T07:52:13.984Z,33.17
2018-07-01T07:53:13.964Z,34.38
2018-07-01T07:54:13.920Z,34.08
2018-07-01T07:55:13.913Z,34.88
2018-07-01T07:56:13.903Z,35.08
2018-07-01T07:57:13.912Z,37.08
2018-07-01T07:58:13.875Z,35.18
2018-07-01T07:59:13.860Z,36.88
2018-07-01T08:00:13.855Z,34.98
2018-07-01T08:01:13.839Z,34.38
2018-07-01T08:02:13.860Z,34.67
2018-07-01T08:03:13.835Z,35.98
2018-07-01T08:04:13.833Z,36.36
2018-07-01T08:05:13.798Z,32.46
2018-07-01T08:06:13.793Z,33.76
2018-07-01T08:07:13.821Z,32.96
2018-07-01T08:08:13.767Z,34.96
2018-07-01T08:09:13.755Z,36.94
2018-07-01T08:10:13.752Z,34.46
2018-07-01T08:11:13.731Z,33.74
2018-07-01T08:12:13.748Z,37.85
2018-07-01T08:13:13.739Z,35.25
2018-07-01T08:14:13.696Z,32.44
2018-07-01T08:15:13.699Z,31.93
2018-07-01T08:16:13.679Z,32.62
2018-07-01T08:17:13.675Z,37.33
2018-07-01T08:18:13.660Z,33.62
2018-07-01T08:19:13.652Z,33.62
2018-07-01T08:20:13.635Z,33.41
2018-07-01T08:21:13.624Z,32.71
2018-07-01T08:22:13.611Z,35.39
2018-07-01T08:23:13.609Z,33.20
2018-07-01T08:24:13.610Z,41.30
2018-07-01T08:25:13.582Z,36.79
2018-07-01T08:26:13.569Z,35.69
2018-07-01T08:27:13.570Z,36.88
2018-07-01T08:28:13.568Z,35.28
2018-07-01T08:29:13.608Z,34.98
2018-07-01T08:30:13.541Z,33.56
2018-07-01T08:31:13.516Z,32.75
2018-07-01T08:32:13.507Z,33.33
2018-07-01T08:33:13.498Z,32.42
2018-07-01T08:34:13.506Z,30.91
2018-07-01T08:35:13.481Z,31.29
2018-07-01T08:36:13.468Z,30.07
2018-07-01T08:37:13.460Z,29.77
2018-07-01T08:38:13.457Z,28.16
2018-07-01T08:39:13.474Z,29.64
2018-07-01T08:40:13.442Z,28.25
2018-07-01T08:41:13.418Z,29.93
2018-07-01T08:42:13.412Z,29.51
2018-07-01T08:43:13.394Z,31.58
2018-07-01T08:44:13.387Z,28.99
2018-07-01T08:45:13.399Z,31.15
2018-07-01T08:46:13.374Z,30.66
2018-07-01T08:47:13.363Z,31.24
2018-07-01T08:48:13.355Z,31.74
2018-07-01T08:49:13.347Z,29.75
2018-07-01T08:50:13.334Z,26.58
2018-07-01T08:51:13.327Z,28.46
2018-07-01T08:52:13.312Z,30.65
2018-07-01T08:53:13.314Z,27.67
2018-07-01T08:54:13.290Z,25.19
2018-07-01T08:55:13.296Z,29.94
2018-07-01T08:56:13.277Z,30.43
2018-07-01T08:57:13.265Z,27.44
2018-07-01T08:58:13.250Z,25.48
2018-07-01T08:59:13.257Z,25.27
2018-07-01T09:00:13.271Z,26.76
2018-07-01T09:01:13.235Z,24.29
2018-07-01T09:02:13.218Z,24.19
2018-07-01T09:03:13.204Z,26.46
2018-07-01T09:04:13.194Z,26.29
2018-07-01T09:05:13.199Z,24.90
2018-07-01T09:06:13.174Z,25.01
2018-07-01T09:07:13.181Z,26.99
2018-07-01T09:08:13.171Z,28.38
2018-07-01T09:09:13.148Z,28.86
2018-07-01T09:10:13.196Z,27.08
2018-07-01T09:11:13.179Z,26.67
2018-07-01T09:12:13.155Z,29.63
2018-07-01T09:13:13.155Z,29.43
2018-07-01T09:14:13.144Z,26.25
2018-07-01T09:15:13.162Z,27.33
2018-07-01T09:16:13.121Z,29.81
2018-07-01T09:17:13.140Z,28.70
2018-07-01T09:18:13.058Z,26.42
2018-07-01T09:19:13.055Z,26.20
2018-07-01T09:20:13.044Z,24.72
2018-07-01T09:21:13.079Z,29.36
2018-07-01T09:22:13.029Z,25.29
2018-07-01T09:23:13.020Z,27.07
2018-07-01T09:24:13.005Z,28.88
2018-07-01T09:25:12.996Z,25.03
2018-07-01T09:26:12.985Z,24.72
2018-07-01T09:27:12.976Z,28.66
2018-07-01T09:28:12.964Z,27.77
2018-07-01T09:29:12.958Z,27.77
2018-07-01T09:30:12.948Z,27.79
2018-07-01T09:31:12.938Z,29.66
2018-07-01T09:32:12.934Z,29.27
2018-07-01T09:33:12.914Z,29.55
2018-07-01T09:34:12.907Z,26.49
2018-07-01T09:35:12.900Z,28.45
2018-07-01T09:36:12.896Z,25.28
2018-07-01T09:37:12.888Z,29.51
2018-07-01T09:38:12.878Z,28.64
2018-07-01T09:39:12.870Z,25.19
2018-07-01T09:40:12.849Z,26.26
2018-07-01T09:41:12.840Z,25.48
2018-07-01T09:42:12.861Z,23.29
2018-07-01T09:43:12.855Z,24.17
2018-07-01T09:44:12.819Z,22.41
2018-07-01T09:45:12.807Z,27.73
2018-07-01T09:46:12.798Z,26.65
2018-07-01T09:47:12.789Z,25.07
2018-07-01T09:48:12.787Z,24.67
2018-07-01T09:49:12.770Z,22.70
2018-07-01T09:50:12.823Z,22.50
2018-07-01T09:51:12.744Z,23.90
2018-07-01T09:52:12.733Z,23.79
2018-07-01T09:53:12.724Z,23.98
2018-07-01T09:54:12.714Z,23.97
2018-07-01T09:55:12.706Z,28.59
2018-07-01T09:56:12.719Z,27.01
2018-07-01T09:57:12.694Z,25.23
2018-07-01T09:58:12.689Z,26.61
2018-07-01T09:59:12.665Z,22.56
2018-07-01T10:00:12.650Z,25.83
2018-07-01T10:01:12.647Z,26.15
2018-07-01T10:02:12.634Z,27.06
2018-07-01T10:03:12.623Z,27.66
2018-07-01T10:04:12.613Z,26.39
2018-07-01T10:05:12.608Z,27.79
2018-07-01T10:06:12.601Z,25.42
2018-07-01T10:07:12.589Z,29.19
2018-07-01T10:08:12.598Z,31.16
2018-07-01T10:09:12.561Z,27.02
2018-07-01T10:10:12.549Z,27.83
2018-07-01T10:11:12.537Z,27.83
2018-07-01T10:12:12.523Z,29.13
2018-07-01T10:13:12.524Z,32.31
2018-07-01T10:14:12.507Z,28.56
2018-07-01T10:15:12.497Z,35.03
2018-07-01T10:16:12.488Z,29.37
2018-07-01T10:17:12.472Z,30.47
2018-07-01T10:18:12.469Z,32.86
2018-07-01T10:19:12.456Z,32.38
2018-07-01T10:20:12.453Z,29.91
2018-07-01T10:21:12.436Z,27.92
2018-07-01T10:22:12.423Z,31.41
2018-07-01T10:23:12.410Z,34.38
2018-07-01T10:24:12.435Z,32.29
2018-07-01T10:25:12.386Z,27.23
2018-07-01T10:26:12.386Z,27.83
2018-07-01T10:27:12.391Z,32.41
2018-07-01T10:28:12.363Z,34.80
2018-07-01T10:29:12.365Z,28.72
2018-07-01T10:30:12.346Z,31.00
2018-07-01T10:31:12.328Z,32.69
2018-07-01T10:32:12.330Z,26.32
2018-07-01T10:33:12.346Z,26.53
2018-07-01T10:34:12.296Z,32.39
2018-07-01T10:35:12.288Z,31.80
2018-07-01T10:36:12.272Z,30.79
2018-07-01T10:37:12.264Z,27.81
2018-07-01T10:38:12.255Z,30.69
2018-07-01T10:39:12.252Z,29.69
2018-07-01T10:40:12.291Z,27.51
2018-07-01T10:41:12.228Z,29.88
2018-07-01T10:42:12.228Z,28.39
2018-07-01T10:43:12.204Z,26.10
2018-07-01T10:44:12.191Z,29.08
2018-07-01T10:45:12.217Z,31.07
2018-07-01T10:46:12.176Z,28.77
2018-07-01T10:47:12.172Z,30.76
2018-07-01T10:48:12.159Z,29.65
2018-07-01T10:49:12.142Z,27.37
2018-07-01T10:50:12.136Z,30.13
2018-07-01T10:51:12.182Z,26.85
2018-07-01T10:52:12.117Z,26.62
2018-07-01T10:53:12.113Z,29.17
2018-07-01T10:54:12.093Z,30.24
2018-07-01T10:55:12.086Z,26.36
2018-07-01T10:56:12.071Z,24.77
2018-07-01T10:57:12.058Z,21.80
2018-07-01T10:58:12.050Z,23.47
2018-07-01T10:59:12.063Z,26.72
2018-07-01T11:00:12.033Z,27.72
2018-07-01T11:01:12.035Z,30.60
2018-07-01T11:02:12.011Z,23.80
2018-07-01T11:03:12.010Z,24.99
2018-07-01T11:04:11.985Z,26.78
2018-07-01T11:05:11.982Z,22.94
2018-07-01T11:06:12.097Z,24.83
2018-07-01T11:07:11.957Z,26.34
2018-07-01T11:08:11.944Z,30.52
2018-07-01T11:09:11.931Z,31.60
2018-07-01T11:10:11.925Z,32.02
2018-07-01T11:11:11.917Z,23.89
2018-07-01T11:12:11.912Z,26.08
2018-07-01T11:13:11.897Z,28.76
2018-07-01T11:14:11.884Z,33.92
2018-07-01T11:15:11.874Z,30.44
2018-07-01T11:16:11.868Z,26.96
2018-07-01T11:17:11.869Z,25.49
2018-07-01T11:18:11.843Z,28.06
2018-07-01T11:19:11.835Z,26.48
2018-07-01T11:20:11.852Z,27.87
2018-07-01T11:21:11.813Z,27.75
2018-07-01T11:22:11.859Z,32.78
2018-07-01T11:23:11.802Z,34.94
2018-07-01T11:24:11.792Z,29.07
2018-07-01T11:25:11.783Z,26.67
2018-07-01T11:26:11.775Z,27.14
2018-07-01T11:27:12.004Z,28.38
2018-07-01T11:28:11.753Z,30.91
2018-07-01T11:29:11.741Z,25.18
2018-07-01T11:30:11.737Z,25.44
2018-07-01T11:31:11.732Z,26.29
2018-07-01T11:32:11.730Z,22.94
2018-07-01T11:33:11.758Z,23.21
2018-07-01T11:34:11.725Z,24.46
2018-07-01T11:35:11.832Z,19.65
2018-07-01T11:36:11.727Z,22.78
2018-07-01T11:37:11.681Z,19.76
2018-07-01T11:38:11.735Z,22.89
2018-07-01T11:39:11.666Z,26.22
2018-07-01T11:40:11.656Z,23.77
2018-07-01T11:41:11.643Z,21.89
2018-07-01T11:42:11.636Z,21.11
2018-07-01T11:43:11.647Z,20.83
2018-07-01T11:44:11.626Z,19.46
2018-07-01T11:45:11.624Z,22.09
2018-07-01T11:46:11.608Z,21.22
2018-07-01T11:47:11.598Z,24.74
2018-07-01T11:48:11.606Z,21.21
2018-07-01T11:49:11.580Z,21.49
2018-07-01T11:50:11.574Z,20.53
2018-07-01T11:51:11.575Z,21.70
2018-07-01T11:52:11.589Z,19.93
2018-07-01T11:53:11.587Z,20.51
2018-07-01T11:54:11.547Z,23.83
2018-07-01T11:55:11.543Z,20.41
2018-07-01T11:56:11.581Z,21.86
2018-07-01T11:57:11.528Z,22.94
2018-07-01T11:58:11.571Z,19.50
2018-07-01T11:59:11.513Z,21.84
2018-07-01T12:00:11.499Z,22.72
2018-07-01T12:01:11.492Z,20.10
2018-07-01T12:02:11.486Z,19.42
2018-07-01T12:03:11.482Z,21.35
2018-07-01T12:04:11.505Z,20.17
2018-07-01T12:05:16.656Z,20.66
2018-07-01T12:06:11.459Z,20.09
2018-07-01T12:07:11.449Z,20.68
2018-07-01T12:08:11.442Z,20.61
2018-07-01T12:09:11.453Z,23.44
2018-07-01T12:10:11.436Z,23.05
2018-07-01T12:11:11.420Z,22.86
2018-07-01T12:12:11.412Z,19.63
2018-07-01T12:13:11.404Z,16.97
2018-07-01T12:14:11.399Z,23.01
2018-07-01T12:15:11.407Z,22.72
2018-07-01T12:16:11.407Z,19.99
2018-07-01T12:17:11.382Z,19.20
2018-07-01T12:18:11.371Z,19.58
2018-07-01T12:19:11.361Z,21.43
2018-07-01T12:20:11.381Z,21.62
2018-07-01T12:21:11.345Z,19.38
2018-07-01T12:22:11.340Z,20.65
2018-07-01T12:23:11.356Z,18.15
2018-07-01T12:24:11.332Z,19.34
2018-07-01T12:25:11.314Z,23.62
2018-07-01T12:26:11.316Z,22.90
2018-07-01T12:27:11.305Z,19.87
2018-07-01T12:28:11.302Z,19.78
2018-07-01T12:29:11.292Z,20.64
2018-07-01T12:30:11.285Z,20.24
2018-07-01T12:31:11.277Z,20.92
2018-07-01T12:32:11.263Z,18.58
2018-07-01T12:33:11.256Z,18.19
2018-07-01T12:34:11.253Z,19.93
2018-07-01T12:35:11.246Z,22.16
2018-07-01T12:36:11.287Z,20.32
2018-07-01T12:37:11.278Z,19.93
2018-07-01T12:38:11.270Z,18.59
2018-07-01T12:39:11.218Z,20.04
2018-07-01T12:40:11.205Z,19.47
2018-07-01T12:41:11.223Z,18.70
2018-07-01T12:42:11.333Z,18.12
2018-07-01T12:43:11.185Z,20.43
2018-07-01T12:44:11.175Z,22.94
2018-07-01T12:45:11.168Z,19.53
2018-07-01T12:46:11.189Z,18.35
2018-07-01T12:47:11.158Z,16.79
2018-07-01T12:48:11.153Z,18.05
2018-07-01T12:49:11.146Z,19.32
2018-07-01T12:50:11.136Z,17.68
2018-07-01T12:51:11.126Z,16.91
2018-07-01T12:52:11.137Z,19.71